createdAt,value
2022-08-19T19:10:56.826Z,100722.28
2022-08-19T19:13:29.758Z,100720.88
2022-08-19T19:16:04.543Z,100725.63
2022-08-19T19:18:34.861Z,100739.09
2022-08-19T19:21:05.629Z,100736.84
2022-08-19T19:23:40.762Z,100737.75
2022-08-19T19:26:13.004Z,100739.91
2022-08-19T19:28:46.454Z,100740.09
2022-08-19T19:31:20.509Z,100743.47
2022-08-19T19:33:50.795Z,100747.84
2022-08-19T19:36:21.231Z,100740.94
2022-08-19T19:38:51.787Z,100748.59
2022-08-19T19:41:24.507Z,100748.03
2022-08-19T19:44:30.261Z,100752.28
2022-08-19T19:46:49.051Z,100759.94
2022-08-19T19:49:19.348Z,100750.72
2022-08-19T19:51:49.624Z,100752.72
2022-08-19T19:54:23.557Z,100747.72
2022-08-19T19:56:54.202Z,100754.34
2022-08-19T19:59:24.557Z,100751.97
2022-08-19T20:01:56.757Z,100755.91
2022-08-19T20:04:30.540Z,100746.44
2022-08-19T20:07:00.756Z,100740.34
2022-08-19T20:09:49.736Z,100747.13
2022-08-19T20:12:23.558Z,100750.06
2022-08-19T20:14:53.953Z,100746.97
2022-08-19T20:17:27.204Z,100748.94
2022-08-19T20:19:58.262Z,100757.41
2022-08-19T20:22:28.615Z,100763.63
2022-08-19T20:25:06.708Z,100751.63
2022-08-19T20:27:39.814Z,100758.09
2022-08-19T20:30:19.531Z,100768.97
2022-08-19T20:32:50.843Z,100765.00
2022-08-19T20:35:21.811Z,100763.56
2022-08-19T20:37:58.113Z,100756.63
2022-08-19T20:40:29.465Z,100749.38
2022-08-19T20:42:59.685Z,100756.72
2022-08-19T20:45:32.831Z,100763.78
2022-08-19T20:48:06.028Z,100757.84
2022-08-19T20:50:36.961Z,100762.75
2022-08-19T20:53:16.398Z,100764.88
2022-08-19T20:55:51.417Z,100766.97
2022-08-19T20:58:23.196Z,100766.41
2022-08-19T21:00:57.431Z,100759.72
2022-08-19T21:03:35.226Z,100764.63
2022-08-19T21:06:14.704Z,100769.28
2022-08-19T21:08:45.342Z,100776.91
2022-08-19T21:11:20.708Z,100754.34
2022-08-19T21:13:51.180Z,100759.59
2022-08-19T21:16:21.431Z,100761.69
2022-08-19T21:18:51.664Z,100758.56
2022-08-19T21:21:21.938Z,100757.84
2022-08-19T21:23:52.316Z,100755.94
2022-08-19T21:26:22.648Z,100762.03
2022-08-19T21:28:52.831Z,100761.44
2022-08-19T21:31:23.167Z,100759.13
2022-08-19T21:33:54.234Z,100769.88
2022-08-19T21:36:24.552Z,100765.63
2022-08-19T21:38:55.259Z,100766.63
2022-08-19T21:41:25.469Z,100774.78
2022-08-19T21:43:55.757Z,100768.69
2022-08-19T21:46:26.061Z,100753.00
2022-08-19T21:48:56.241Z,100765.41
2022-08-19T21:51:26.468Z,100774.44
2022-08-19T21:53:58.177Z,100773.44
2022-08-19T21:56:29.013Z,100777.00
2022-08-19T21:58:59.263Z,100773.44
2022-08-19T22:01:29.734Z,100782.59
2022-08-19T22:04:00.023Z,100781.63
2022-08-19T22:06:30.157Z,100758.03
2022-08-19T22:09:00.405Z,100769.47
2022-08-19T22:11:30.681Z,100761.44
2022-08-19T22:14:01.576Z,100757.06
2022-08-19T22:16:34.680Z,100758.63
2022-08-19T22:19:05.138Z,100754.22
2022-08-19T22:21:40.077Z,100755.06
2022-08-19T22:24:10.835Z,100743.91
2022-08-19T22:26:41.055Z,100754.63
2022-08-19T22:29:11.439Z,100757.75
2022-08-19T22:31:54.248Z,100752.38
2022-08-19T22:34:25.298Z,100746.47
2022-08-19T22:36:55.497Z,100745.34
2022-08-19T22:39:25.591Z,100750.44
2022-08-19T22:41:56.634Z,100751.09
2022-08-19T22:44:26.961Z,100762.66
2022-08-19T22:46:57.334Z,100766.97
2022-08-19T22:49:27.563Z,100769.63
2022-08-19T22:52:17.878Z,100751.38
2022-08-19T22:54:54.072Z,100749.66
2022-08-19T22:57:24.324Z,100743.25
2022-08-19T23:00:00.995Z,100739.13
2022-08-19T23:02:38.653Z,100748.88
2022-08-19T23:05:24.177Z,100755.34
2022-08-19T23:07:57.502Z,100753.88
2022-08-19T23:10:29.270Z,100750.25
2022-08-19T23:13:00.273Z,100753.75
2022-08-19T23:15:32.845Z,100751.31
2022-08-19T23:18:05.299Z,100754.88
2022-08-19T23:20:38.819Z,100760.34
2022-08-19T23:23:12.636Z,100759.63
2022-08-19T23:25:42.858Z,100759.75
2022-08-19T23:28:32.538Z,100773.00
2022-08-19T23:31:03.062Z,100782.28
2022-08-19T23:33:50.834Z,100776.81
2022-08-19T23:36:23.334Z,100788.63
2022-08-19T23:38:53.613Z,100788.16
2022-08-19T23:41:27.290Z,100790.09
2022-08-19T23:43:58.095Z,100805.81
2022-08-19T23:46:30.604Z,100806.19
2022-08-19T23:49:01.216Z,100812.63
2022-08-19T23:51:31.470Z,100809.09
2022-08-19T23:54:01.679Z,100811.56
2022-08-19T23:56:32.001Z,100817.63
2022-08-19T23:59:02.234Z,100814.34
